Jette Viking Hv77 — 5QEP — position and weather

sailwx.info

Track history (hours):
 
Tides and Currents Weather Stations Pressure Air Temp Water Temp Dewpoint Dewpoint Depression Visibility Wind Speed Wind Dir Waves Ship Positions

Jette Viking Hv77

Last reported at 2016-Aug-25 06:33 UTC. Time now 2016-Aug-25 11:29 UTC.
Position N 57°30' E 010°30'.

Length 16 m.

Type: Fishing. MMSI: 220046000.

Date/timePositionNaut miles runAvg speedWind from/ knotsBaromVisibWave heightAir tempDewpointWater temp
2016-Aug-25 06:33N 57°30' E 010°30'1 0.3
2016-Aug-25 04:33N 57°30' E 010°32'4 4.5
2016-Aug-25 03:33N 57°28' E 010°39'9 2.3
2016-Aug-24 23:29N 57°34' E 010°53'1 1.4
2016-Aug-24 22:33N 57°36' E 010°53'3 2.6
2016-Aug-24 21:34N 57°34' E 010°50'3 2.5
2016-Aug-24 20:33N 57°31' E 010°49'3 2.6
2016-Aug-24 19:23N 57°28' E 010°48'2 2.7
2016-Aug-24 18:33N 57°26' E 010°47'10 1.1
2016-Aug-24 09:32N 57°30' E 010°30'16 1.9
2016-Aug-24 01:21N 57°31' E 010°60'3 2.6
2016-Aug-24 00:14N 57°32' E 011°04'3 2.1
2016-Aug-23 22:33N 57°34' E 011°09'3 2.7
2016-Aug-23 21:33N 57°33' E 011°05'3 2.7
2016-Aug-23 20:33N 57°31' E 011°02'3 2.7
2016-Aug-23 19:32N 57°30' E 010°57'3 2.7
2016-Aug-23 18:27N 57°28' E 010°53'2 0.2
2016-Aug-23 03:33N 57°28' E 010°48'3 3.2
2016-Aug-23 02:31N 57°29' E 010°54'6 2.7
2016-Aug-23 00:25N 57°33' E 011°02'2 2.8
2016-Aug-22 23:33N 57°35' E 011°05'2 1.6
2016-Aug-22 22:34N 57°36' E 011°07'3 2.5
2016-Aug-22 21:33N 57°34' E 011°04'3 2.6
2016-Aug-22 20:33N 57°32' E 011°01'3 2.6
2016-Aug-22 19:33N 57°30' E 010°57'3 2.6
2016-Aug-22 18:31N 57°29' E 010°53'8 7.2
2016-Aug-22 17:26N 57°29' E 010°38'4 1.9
2016-Aug-22 15:13N 57°30' E 010°30'0 0.3
2016-Aug-22 14:32N 57°30' E 010°30'0 0.0
2016-Aug-22 13:32N 57°30' E 010°30'0 0.0
2016-Aug-22 12:28N 57°30' E 010°30'0 0.0
2016-Aug-22 11:31N 57°30' E 010°30'0 0.0
2016-Aug-22 10:33N 57°30' E 010°30'11 0.9
2016-Aug-21 22:33N 57°38' E 010°44'3 2.7
2016-Aug-21 21:33N 57°36' E 010°41'3 2.6
2016-Aug-21 20:33N 57°33' E 010°41'3 2.7
2016-Aug-21 19:33N 57°30' E 010°43'3 2.6
2016-Aug-21 18:33N 57°28' E 010°43'6 5.8
2016-Aug-21 17:33N 57°29' E 010°33'1 1.1
2016-Aug-21 16:22N 57°30' E 010°30'0 0.0
2016-Aug-21 15:31N 57°30' E 010°30'0 0.0
2016-Aug-21 14:33N 57°30' E 010°30'0 0.0
2016-Aug-21 13:33N 57°30' E 010°30'0 0.0
2016-Aug-21 12:32N 57°30' E 010°30'0 0.0
2016-Aug-21 11:33N 57°30' E 010°30'0 0.0
2016-Aug-21 08:32N 57°30' E 010°30'0 0.0
2016-Aug-21 07:30N 57°30' E 010°30'0 0.0
2016-Aug-21 06:30N 57°30' E 010°30'0 0.0
2016-Aug-21 05:33N 57°30' E 010°30'0 0.0
2016-Aug-21 04:07N 57°30' E 010°30'0 0.0
2016-Aug-21 03:32N 57°30' E 010°30'0 0.0
2016-Aug-21 01:33N 57°30' E 010°30'0 0.0
2016-Aug-21 00:13N 57°30' E 010°30'0 0.0
2016-Aug-20 23:30N 57°30' E 010°30'0 0.0
2016-Aug-20 08:13N 57°30' E 010°30'0 0.0
2016-Aug-20 07:33N 57°30' E 010°30'0 0.0
2016-Aug-20 06:33N 57°30' E 010°30'0 0.0
2016-Aug-20 05:33N 57°30' E 010°30'9 0.3
2016-Aug-18 20:04N 57°30' E 010°47'2 2.7
2016-Aug-18 19:20N 57°28' E 010°46'6 0.3
2016-Aug-17 21:32N 57°34' E 010°50'5 2.6
2016-Aug-17 19:27N 57°29' E 010°47'2 2.7
2016-Aug-17 18:33N 57°26' E 010°46'7 6.8
2016-Aug-17 17:33N 57°29' E 010°34'2 2.1
2016-Aug-17 16:33N 57°30' E 010°30'0 0.0
2016-Aug-17 14:32N 57°30' E 010°30'0 0.0
2016-Aug-17 13:24N 57°30' E 010°30'0 0.0
2016-Aug-17 12:33N 57°30' E 010°30'0 0.0
2016-Aug-17 11:33N 57°30' E 010°30'0 0.0
2016-Aug-17 10:33N 57°30' E 010°30'0 0.0
2016-Aug-17 09:33N 57°30' E 010°30'0 0.0
2016-Aug-17 07:28N 57°30' E 010°30'0 0.0
2016-Aug-17 06:33N 57°30' E 010°30'0 0.1
2016-Aug-17 05:32N 57°30' E 010°30'1 1.3
2016-Aug-17 04:33N 57°30' E 010°33'5 5.0
2016-Aug-17 03:33N 57°28' E 010°41'3 2.7
2016-Aug-17 02:25N 57°28' E 010°47'2 2.7
2016-Aug-17 01:33N 57°30' E 010°48'4 2.6
2016-Aug-17 00:11N 57°34' E 010°50'2 2.8
2016-Aug-16 23:25N 57°35' E 010°52'1 1.0
2016-Aug-16 22:33N 57°36' E 010°53'3 2.7
2016-Aug-16 21:34N 57°34' E 010°50'3 2.6
2016-Aug-16 20:33N 57°32' E 010°47'3 2.6
2016-Aug-16 19:33N 57°29' E 010°47'3 2.7
2016-Aug-16 18:34N 57°27' E 010°46'7 7.3
2016-Aug-16 17:34N 57°29' E 010°33'2 0.2
2016-Aug-16 07:12N 57°30' E 010°30'1 0.4
2016-Aug-16 04:29N 57°30' E 010°32'5 5.5
2016-Aug-16 03:31N 57°28' E 010°42'3 2.4
2016-Aug-16 02:08N 57°29' E 010°47'2 2.7
2016-Aug-16 01:33N 57°31' E 010°47'3 2.6
2016-Aug-16 00:33N 57°33' E 010°47'3 2.6
2016-Aug-15 23:24N 57°35' E 010°52'1 0.9
2016-Aug-15 22:34N 57°36' E 010°52'3 2.6
2016-Aug-15 21:33N 57°34' E 010°49'3 2.6
2016-Aug-15 20:33N 57°32' E 010°47'3 2.7
2016-Aug-15 19:33N 57°29' E 010°47'2 2.4
2016-Aug-15 18:33N 57°27' E 010°45'8 7.5
2016-Aug-15 17:33N 57°29' E 010°32'1 0.1
2016-Aug-15 08:27N 57°30' E 010°30'  
Track history (hours):
 
Tides and Currents Weather Stations Pressure Air Temp Water Temp Dewpoint Dewpoint Depression Visibility Wind Speed Wind Dir Waves Ship Positions

Jette Viking Hv77

Last reported at 2016-Aug-25 06:33 UTC. Time now 2016-Aug-25 11:29 UTC.
Position N 57°30' E 010°30'.

Length 16 m.

Type: Fishing. MMSI: 220046000.

Date/timePositionNaut miles runAvg speedWind from/ knotsBaromVisibWave heightAir tempDewpointWater temp
2016-Aug-25 06:33N 57°30' E 010°30'1 0.3
2016-Aug-25 04:33N 57°30' E 010°32'4 4.5
2016-Aug-25 03:33N 57°28' E 010°39'9 2.3
2016-Aug-24 23:29N 57°34' E 010°53'1 1.4
2016-Aug-24 22:33N 57°36' E 010°53'3 2.6
2016-Aug-24 21:34N 57°34' E 010°50'3 2.5
2016-Aug-24 20:33N 57°31' E 010°49'3 2.6
2016-Aug-24 19:23N 57°28' E 010°48'2 2.7
2016-Aug-24 18:33N 57°26' E 010°47'10 1.1
2016-Aug-24 09:32N 57°30' E 010°30'16 1.9
2016-Aug-24 01:21N 57°31' E 010°60'3 2.6
2016-Aug-24 00:14N 57°32' E 011°04'3 2.1
2016-Aug-23 22:33N 57°34' E 011°09'3 2.7
2016-Aug-23 21:33N 57°33' E 011°05'3 2.7
2016-Aug-23 20:33N 57°31' E 011°02'3 2.7
2016-Aug-23 19:32N 57°30' E 010°57'3 2.7
2016-Aug-23 18:27N 57°28' E 010°53'2 0.2
2016-Aug-23 03:33N 57°28' E 010°48'3 3.2
2016-Aug-23 02:31N 57°29' E 010°54'6 2.7
2016-Aug-23 00:25N 57°33' E 011°02'2 2.8
2016-Aug-22 23:33N 57°35' E 011°05'2 1.6
2016-Aug-22 22:34N 57°36' E 011°07'3 2.5
2016-Aug-22 21:33N 57°34' E 011°04'3 2.6
2016-Aug-22 20:33N 57°32' E 011°01'3 2.6
2016-Aug-22 19:33N 57°30' E 010°57'3 2.6
2016-Aug-22 18:31N 57°29' E 010°53'8 7.2
2016-Aug-22 17:26N 57°29' E 010°38'4 1.9
2016-Aug-22 15:13N 57°30' E 010°30'0 0.3
2016-Aug-22 14:32N 57°30' E 010°30'0 0.0
2016-Aug-22 13:32N 57°30' E 010°30'0 0.0
2016-Aug-22 12:28N 57°30' E 010°30'0 0.0
2016-Aug-22 11:31N 57°30' E 010°30'0 0.0
2016-Aug-22 10:33N 57°30' E 010°30'11 0.9
2016-Aug-21 22:33N 57°38' E 010°44'3 2.7
2016-Aug-21 21:33N 57°36' E 010°41'3 2.6
2016-Aug-21 20:33N 57°33' E 010°41'3 2.7
2016-Aug-21 19:33N 57°30' E 010°43'3 2.6
2016-Aug-21 18:33N 57°28' E 010°43'6 5.8
2016-Aug-21 17:33N 57°29' E 010°33'1 1.1
2016-Aug-21 16:22N 57°30' E 010°30'0 0.0
2016-Aug-21 15:31N 57°30' E 010°30'0 0.0
2016-Aug-21 14:33N 57°30' E 010°30'0 0.0
2016-Aug-21 13:33N 57°30' E 010°30'0 0.0
2016-Aug-21 12:32N 57°30' E 010°30'0 0.0
2016-Aug-21 11:33N 57°30' E 010°30'0 0.0
2016-Aug-21 08:32N 57°30' E 010°30'0 0.0
2016-Aug-21 07:30N 57°30' E 010°30'0 0.0
2016-Aug-21 06:30N 57°30' E 010°30'0 0.0
2016-Aug-21 05:33N 57°30' E 010°30'0 0.0
2016-Aug-21 04:07N 57°30' E 010°30'0 0.0
2016-Aug-21 03:32N 57°30' E 010°30'0 0.0
2016-Aug-21 01:33N 57°30' E 010°30'0 0.0
2016-Aug-21 00:13N 57°30' E 010°30'0 0.0
2016-Aug-20 23:30N 57°30' E 010°30'0 0.0
2016-Aug-20 08:13N 57°30' E 010°30'0 0.0
2016-Aug-20 07:33N 57°30' E 010°30'0 0.0
2016-Aug-20 06:33N 57°30' E 010°30'0 0.0
2016-Aug-20 05:33N 57°30' E 010°30'9 0.3
2016-Aug-18 20:04N 57°30' E 010°47'2 2.7
2016-Aug-18 19:20N 57°28' E 010°46'6 0.3
2016-Aug-17 21:32N 57°34' E 010°50'5 2.6
2016-Aug-17 19:27N 57°29' E 010°47'2 2.7
2016-Aug-17 18:33N 57°26' E 010°46'7 6.8
2016-Aug-17 17:33N 57°29' E 010°34'2 2.1
2016-Aug-17 16:33N 57°30' E 010°30'0 0.0
2016-Aug-17 14:32N 57°30' E 010°30'0 0.0
2016-Aug-17 13:24N 57°30' E 010°30'0 0.0
2016-Aug-17 12:33N 57°30' E 010°30'0 0.0
2016-Aug-17 11:33N 57°30' E 010°30'0 0.0
2016-Aug-17 10:33N 57°30' E 010°30'0 0.0
2016-Aug-17 09:33N 57°30' E 010°30'0 0.0
2016-Aug-17 07:28N 57°30' E 010°30'0 0.0
2016-Aug-17 06:33N 57°30' E 010°30'0 0.1
2016-Aug-17 05:32N 57°30' E 010°30'1 1.3
2016-Aug-17 04:33N 57°30' E 010°33'5 5.0
2016-Aug-17 03:33N 57°28' E 010°41'3 2.7
2016-Aug-17 02:25N 57°28' E 010°47'2 2.7
2016-Aug-17 01:33N 57°30' E 010°48'4 2.6
2016-Aug-17 00:11N 57°34' E 010°50'2 2.8
2016-Aug-16 23:25N 57°35' E 010°52'1 1.0
2016-Aug-16 22:33N 57°36' E 010°53'3 2.7
2016-Aug-16 21:34N 57°34' E 010°50'3 2.6
2016-Aug-16 20:33N 57°32' E 010°47'3 2.6
2016-Aug-16 19:33N 57°29' E 010°47'3 2.7
2016-Aug-16 18:34N 57°27' E 010°46'7 7.3
2016-Aug-16 17:34N 57°29' E 010°33'2 0.2
2016-Aug-16 07:12N 57°30' E 010°30'1 0.4
2016-Aug-16 04:29N 57°30' E 010°32'5 5.5
2016-Aug-16 03:31N 57°28' E 010°42'3 2.4
2016-Aug-16 02:08N 57°29' E 010°47'2 2.7
2016-Aug-16 01:33N 57°31' E 010°47'3 2.6
2016-Aug-16 00:33N 57°33' E 010°47'3 2.6
2016-Aug-15 23:24N 57°35' E 010°52'1 0.9
2016-Aug-15 22:34N 57°36' E 010°52'3 2.6
2016-Aug-15 21:33N 57°34' E 010°49'3 2.6
2016-Aug-15 20:33N 57°32' E 010°47'3 2.7
2016-Aug-15 19:33N 57°29' E 010°47'2 2.4
2016-Aug-15 18:33N 57°27' E 010°45'8 7.5
2016-Aug-15 17:33N 57°29' E 010°32'1 0.1
2016-Aug-15 08:27N 57°30' E 010°30'  

Dump ship's entire track history